Time;durP1;ratioP1;P1;durP2;ratioP2;P2;SDS_P1;SDS_P2;PMS_P1;PMS_P2;Temp;Humidity;BMP_temperature;BMP_pressure;BME280_temperature;BME280_humidity;BME280_pressure;Samples;Min_cycle;Max_cycle;Signal;HPM_P1;HPM_P2
2022/04/04 00:01:48;;;;;;;12.90;11.05;;;;;;;;;;5096846;28;20073;-72
2022/04/04 00:04:13;;;;;;;13.18;10.90;;;;;;;;;;5094756;28;20050;-74
2022/04/04 00:06:40;;;;;;;13.00;10.45;;;;;;;;;;5095224;28;20093;-71
2022/04/04 00:09:05;;;;;;;15.63;12.95;;;;;;;;;;5093424;28;20054;-72
2022/04/04 00:11:30;;;;;;;15.32;12.95;;;;;;;;;;5096720;28;20067;-72
2022/04/04 00:13:56;;;;;;;19.77;15.43;;;;;;;;;;5097390;28;20031;-73
2022/04/04 00:16:21;;;;;;;27.02;20.80;;;;;;;;;;5094719;28;20040;-73
2022/04/04 00:18:46;;;;;;;24.55;19.02;;;;;;;;;;5096177;28;20038;-74
2022/04/04 00:21:12;;;;;;;18.67;14.35;;;;;;;;;;5094340;28;20024;-72
2022/04/04 00:23:37;;;;;;;22.38;18.52;;;;;;;;;;5095398;28;20060;-76
2022/04/04 00:26:03;;;;;;;37.30;24.85;;;;;;;;;;5093237;28;20035;-76
2022/04/04 00:28:30;;;;;;;32.03;22.15;;;;;;;;;;5093854;27;21303;-73
2022/04/04 00:30:55;;;;;;;35.28;26.13;;;;;;;;;;5093248;28;20031;-72
2022/04/04 00:33:20;;;;;;;23.08;16.75;;;;;;;;;;5095459;28;20069;-72
2022/04/04 00:35:46;;;;;;;18.98;15.27;;;;;;;;;;5095232;28;20077;-73
2022/04/04 00:38:11;;;;;;;24.70;17.60;;;;;;;;;;5094067;28;20019;-76
2022/04/04 00:40:36;;;;;;;21.38;15.80;;;;;;;;;;5094998;28;20020;-73
2022/04/04 00:43:02;;;;;;;20.60;14.60;;;;;;;;;;5092016;28;20052;-73
2022/04/04 00:45:27;;;;;;;17.17;11.85;;;;;;;;;;5094610;28;20116;-74
2022/04/04 00:47:53;;;;;;;18.55;12.52;;;;;;;;;;5093046;28;20101;-75
2022/04/04 00:50:18;;;;;;;15.40;11.35;;;;;;;;;;5096246;28;20027;-73
2022/04/04 00:52:44;;;;;;;22.70;15.45;;;;;;;;;;5095159;28;20698;-71
2022/04/04 00:55:10;;;;;;;23.60;14.27;;;;;;;;;;5096893;28;20024;-71
2022/04/04 00:57:39;;;;;;;27.20;18.48;;;;;;;;;;5091718;28;20442;-72
2022/04/04 01:00:06;;;;;;;29.13;18.67;;;;;;;;;;5095106;28;20039;-73
2022/04/04 01:02:31;;;;;;;22.60;15.60;;;;;;;;;;5091162;28;20067;-72
2022/04/04 01:04:56;;;;;;;20.40;14.13;;;;;;;;;;5093631;28;20113;-74
2022/04/04 01:07:22;;;;;;;20.00;13.68;;;;;;;;;;5095412;28;20336;-73
2022/04/04 01:09:48;;;;;;;24.30;15.70;;;;;;;;;;5096603;28;20016;-76
2022/04/04 01:12:13;;;;;;;15.10;12.60;;;;;;;;;;5093565;28;20019;-75
2022/04/04 01:14:47;;;;;;;12.30;10.50;;;;;;;;;;5093887;28;20034;-72
2022/04/04 01:17:13;;;;;;;14.40;10.10;;;;;;;;;;5093642;28;20043;-72
2022/04/04 01:19:39;;;;;;;16.00;12.02;;;;;;;;;;5089105;28;20339;-71
2022/04/04 01:22:05;;;;;;;15.45;12.63;;;;;;;;;;5088169;28;20722;-73
2022/04/04 01:24:31;;;;;;;21.15;14.27;;;;;;;;;;5093343;28;20032;-74
2022/04/04 01:26:56;;;;;;;18.08;12.93;;;;;;;;;;5091679;28;20039;-72
2022/04/04 01:29:22;;;;;;;19.52;12.88;;;;;;;;;;5089309;28;20499;-71
2022/04/04 01:31:47;;;;;;;23.48;15.77;;;;;;;;;;5090215;28;20052;-75
2022/04/04 01:34:13;;;;;;;21.52;13.85;;;;;;;;;;5090569;28;20024;-71
2022/04/04 01:36:39;;;;;;;19.17;13.95;;;;;;;;;;5093853;28;21067;-71
2022/04/04 01:39:04;;;;;;;16.60;12.93;;;;;;;;;;5090855;28;20030;-71
2022/04/04 01:41:29;;;;;;;14.40;11.55;;;;;;;;;;5092501;28;20031;-71
2022/04/04 01:43:55;;;;;;;15.20;11.40;;;;;;;;;;5092382;28;20457;-73
2022/04/04 01:46:25;;;;;;;14.88;11.50;;;;;;;;;;5092215;28;20458;-73
2022/04/04 01:48:51;;;;;;;18.13;13.13;;;;;;;;;;5093269;28;20127;-74
2022/04/04 01:51:16;;;;;;;16.70;12.15;;;;;;;;;;5093760;28;20019;-72
2022/04/04 01:53:42;;;;;;;15.90;11.10;;;;;;;;;;5093420;28;20038;-71
2022/04/04 01:56:08;;;;;;;14.27;10.80;;;;;;;;;;5093978;28;20477;-73
2022/04/04 01:58:33;;;;;;;14.98;11.60;;;;;;;;;;5093874;28;20093;-77
2022/04/04 02:01:01;;;;;;;19.23;13.82;;;;;;;;;;5095640;28;20402;-73
2022/04/04 02:03:28;;;;;;;23.33;15.65;;;;;;;;;;5095436;28;20034;-72
2022/04/04 02:05:54;;;;;;;24.80;15.07;;;;;;;;;;5094403;28;20031;-72
2022/04/04 02:08:19;;;;;;;16.42;11.50;;;;;;;;;;5092648;28;21026;-76
2022/04/04 02:10:44;;;;;;;13.85;10.70;;;;;;;;;;5093883;28;20044;-72
2022/04/04 02:13:10;;;;;;;27.17;17.10;;;;;;;;;;5083911;28;20803;-73
2022/04/04 02:15:35;;;;;;;20.70;12.93;;;;;;;;;;5089144;28;20151;-71
2022/04/04 02:18:01;;;;;;;17.38;11.65;;;;;;;;;;5088036;28;20373;-72
2022/04/04 02:20:26;;;;;;;15.73;11.80;;;;;;;;;;5080391;28;20118;-70
2022/04/04 02:22:52;;;;;;;20.33;14.45;;;;;;;;;;5089312;28;20048;-72
2022/04/04 02:25:17;;;;;;;23.35;14.60;;;;;;;;;;5092647;28;20451;-71
2022/04/04 02:27:43;;;;;;;19.77;12.93;;;;;;;;;;5095766;28;20020;-73
2022/04/04 02:30:08;;;;;;;25.85;16.30;;;;;;;;;;5092349;28;20032;-76
2022/04/04 02:32:35;;;;;;;28.48;18.60;;;;;;;;;;5080427;28;20032;-74
2022/04/04 02:35:00;;;;;;;26.83;16.95;;;;;;;;;;5087173;28;20035;-75
2022/04/04 02:37:25;;;;;;;24.50;15.93;;;;;;;;;;5094596;28;20077;-73
2022/04/04 02:39:51;;;;;;;18.08;12.65;;;;;;;;;;5094684;28;20346;-75
2022/04/04 02:42:16;;;;;;;17.67;12.57;;;;;;;;;;5085130;28;20028;-77
2022/04/04 02:44:42;;;;;;;15.93;11.77;;;;;;;;;;5087699;28;20082;-75
2022/04/04 02:47:07;;;;;;;17.55;13.20;;;;;;;;;;5095497;28;20039;-77
2022/04/04 02:49:33;;;;;;;17.73;12.80;;;;;;;;;;5092505;28;20024;-73
2022/04/04 02:51:58;;;;;;;15.68;11.82;;;;;;;;;;5085957;28;20134;-74
2022/04/04 02:54:24;;;;;;;33.85;21.95;;;;;;;;;;5086806;28;20042;-72
2022/04/04 02:56:50;;;;;;;31.80;22.90;;;;;;;;;;5086055;27;21561;-72
2022/04/04 02:59:15;;;;;;;29.98;24.15;;;;;;;;;;5098818;28;20029;-72
2022/04/04 03:01:48;;;;;;;25.65;18.95;;;;;;;;;;5091305;28;20019;-74
2022/04/04 03:04:13;;;;;;;21.92;15.38;;;;;;;;;;5091895;28;20385;-75
2022/04/04 03:06:39;;;;;;;16.83;13.27;;;;;;;;;;5098041;28;20026;-72
2022/04/04 03:09:05;;;;;;;18.60;14.35;;;;;;;;;;5092077;28;20129;-72
2022/04/04 03:11:30;;;;;;;15.18;12.13;;;;;;;;;;5094778;28;20059;-72
2022/04/04 03:13:55;;;;;;;16.83;13.07;;;;;;;;;;5096378;28;20438;-72
2022/04/04 03:16:21;;;;;;;14.70;10.73;;;;;;;;;;5087350;27;20026;-72
2022/04/04 03:18:46;;;;;;;30.38;17.55;;;;;;;;;;5096511;28;20034;-74
2022/04/04 03:21:12;;;;;;;22.42;15.57;;;;;;;;;;5097863;28;20035;-71
2022/04/04 03:23:39;;;;;;;21.60;15.40;;;;;;;;;;5098001;28;20347;-76
2022/04/04 03:26:06;;;;;;;16.67;12.68;;;;;;;;;;5084412;28;20120;-72
2022/04/04 03:28:31;;;;;;;17.60;12.38;;;;;;;;;;5096336;27;20077;-71
2022/04/04 03:30:56;;;;;;;15.68;11.20;;;;;;;;;;5085444;28;20511;-75
2022/04/04 03:33:22;;;;;;;15.18;11.45;;;;;;;;;;5096171;28;20024;-71
2022/04/04 03:35:47;;;;;;;13.30;11.80;;;;;;;;;;5093386;28;20024;-74
2022/04/04 03:38:14;;;;;;;14.30;11.50;;;;;;;;;;5086493;28;20457;-72
2022/04/04 03:40:40;;;;;;;14.35;11.82;;;;;;;;;;5097252;28;20076;-71
2022/04/04 03:43:05;;;;;;;12.65;10.82;;;;;;;;;;5097503;28;20403;-71
2022/04/04 03:45:31;;;;;;;19.75;15.45;;;;;;;;;;5096503;28;20039;-72
2022/04/04 03:47:57;;;;;;;21.40;16.27;;;;;;;;;;5098369;28;20027;-73
2022/04/04 03:50:23;;;;;;;22.17;16.88;;;;;;;;;;5099063;28;20068;-74
2022/04/04 03:52:51;;;;;;;29.73;20.48;;;;;;;;;;5097443;27;20038;-74
2022/04/04 03:55:18;;;;;;;56.88;36.45;;;;;;;;;;5095383;28;20027;-76
2022/04/04 03:57:44;;;;;;;35.45;28.35;;;;;;;;;;5086711;28;20015;-73
2022/04/04 04:00:10;;;;;;;36.53;25.88;;;;;;;;;;5098280;28;20023;-71
2022/04/04 04:02:35;;;;;;;26.90;19.80;;;;;;;;;;5094522;28;20024;-72
2022/04/04 04:05:01;;;;;;;23.70;17.60;;;;;;;;;;5090875;28;20058;-72
2022/04/04 04:07:26;;;;;;;21.08;16.15;;;;;;;;;;5097461;28;20099;-72
2022/04/04 04:09:52;;;;;;;17.27;13.32;;;;;;;;;;5089991;28;20051;-76
2022/04/04 04:12:20;;;;;;;17.10;12.90;;;;;;;;;;5089761;27;20034;-75
2022/04/04 04:14:46;;;;;;;17.73;13.32;;;;;;;;;;5092221;28;20115;-71
2022/04/04 04:17:13;;;;;;;18.50;14.30;;;;;;;;;;5092810;28;20099;-71
2022/04/04 04:22:22;;;;;;;18.33;14.50;;;;;;;;;;5096975;28;20460;-76
2022/04/04 04:24:48;;;;;;;18.30;13.25;;;;;;;;;;5094608;28;20059;-71
2022/04/04 04:27:14;;;;;;;20.17;15.52;;;;;;;;;;5090832;28;20343;-72
2022/04/04 04:29:39;;;;;;;23.10;16.85;;;;;;;;;;5088328;28;20024;-70
2022/04/04 04:32:05;;;;;;;24.10;17.27;;;;;;;;;;5092168;28;20430;-75
2022/04/04 04:34:30;;;;;;;20.27;16.05;;;;;;;;;;5093699;28;20050;-75
2022/04/04 04:36:56;;;;;;;24.05;19.33;;;;;;;;;;5097264;28;20034;-72
2022/04/04 04:39:22;;;;;;;29.20;20.55;;;;;;;;;;5096728;28;20073;-74
2022/04/04 04:41:49;;;;;;;31.75;21.85;;;;;;;;;;5080048;28;20154;-71
2022/04/04 04:44:14;;;;;;;83.72;45.25;;;;;;;;;;5079406;28;20072;-73
2022/04/04 04:46:40;;;;;;;119.38;63.88;;;;;;;;;;5084103;28;20055;-73
2022/04/04 04:49:05;;;;;;;91.43;50.65;;;;;;;;;;5101489;28;20047;-75
2022/04/04 04:51:30;;;;;;;88.53;50.25;;;;;;;;;;5102732;28;20024;-76
2022/04/04 04:53:56;;;;;;;232.48;111.93;;;;;;;;;;5102446;28;20065;-75
2022/04/04 04:56:21;;;;;;;91.07;49.58;;;;;;;;;;5089639;28;20028;-74
2022/04/04 04:58:47;;;;;;;50.85;30.25;;;;;;;;;;5093415;28;20039;-72
2022/04/04 05:01:12;;;;;;;48.40;30.95;;;;;;;;;;5090434;28;20123;-71
2022/04/04 05:03:37;;;;;;;101.20;48.67;;;;;;;;;;5091957;28;20358;-72
2022/04/04 05:06:03;;;;;;;226.73;109.45;;;;;;;;;;5086872;28;20027;-77
2022/04/04 05:08:30;;;;;;;144.40;70.60;;;;;;;;;;5082233;28;20328;-72
2022/04/04 05:10:56;;;;;;;110.22;54.70;;;;;;;;;;5086718;28;20187;-71
2022/04/04 05:13:21;;;;;;;73.07;40.90;;;;;;;;;;5087709;28;20125;-71
2022/04/04 05:15:46;;;;;;;47.78;27.45;;;;;;;;;;5090800;28;20102;-73
2022/04/04 05:18:12;;;;;;;59.78;39.53;;;;;;;;;;5085114;28;20031;-73
2022/04/04 05:20:37;;;;;;;48.13;30.05;;;;;;;;;;5091841;28;20102;-70
2022/04/04 05:23:03;;;;;;;40.47;27.10;;;;;;;;;;5080764;28;20066;-74
2022/04/04 05:25:28;;;;;;;34.28;24.63;;;;;;;;;;5092197;28;20032;-77
2022/04/04 05:27:55;;;;;;;33.90;25.70;;;;;;;;;;5096135;28;20023;-72
2022/04/04 05:30:21;;;;;;;36.90;28.00;;;;;;;;;;5092706;28;20406;-73
2022/04/04 05:32:46;;;;;;;32.67;25.23;;;;;;;;;;5082142;28;20055;-73
2022/04/04 05:35:12;;;;;;;53.22;42.25;;;;;;;;;;5087646;28;20027;-68
2022/04/04 05:37:38;;;;;;;31.75;24.23;;;;;;;;;;5092800;28;20008;-70
2022/04/04 05:40:03;;;;;;;28.63;22.83;;;;;;;;;;5091568;28;20035;-74
2022/04/04 05:42:29;;;;;;;19.83;16.23;;;;;;;;;;5090293;28;20027;-69
2022/04/04 05:44:55;;;;;;;20.02;16.88;;;;;;;;;;5091977;28;20842;-68
2022/04/04 05:47:20;;;;;;;22.23;17.77;;;;;;;;;;5088617;28;20107;-72
2022/04/04 05:49:48;;;;;;;33.53;27.15;;;;;;;;;;5092156;28;20035;-69
2022/04/04 05:52:15;;;;;;;49.55;32.30;;;;;;;;;;5092826;28;20074;-71
2022/04/04 05:54:54;;;;;;;57.30;29.65;;;;;;;;;;5091950;28;20069;-75
2022/04/04 05:57:20;;;;;;;73.68;35.70;;;;;;;;;;5090519;28;20034;-70
2022/04/04 05:59:45;;;;;;;45.15;26.48;;;;;;;;;;5093668;28;20499;-71
2022/04/04 06:02:13;;;;;;;41.22;25.48;;;;;;;;;;5096726;28;20031;-71
2022/04/04 06:04:38;;;;;;;89.05;44.97;;;;;;;;;;5096982;28;20050;-71
2022/04/04 06:07:03;;;;;;;116.00;56.13;;;;;;;;;;5094509;28;20032;-70
2022/04/04 06:09:29;;;;;;;111.93;53.10;;;;;;;;;;5096229;28;20423;-69
2022/04/04 06:11:54;;;;;;;129.35;56.17;;;;;;;;;;5095117;28;20063;-69
2022/04/04 06:14:20;;;;;;;98.00;48.17;;;;;;;;;;5096990;28;20477;-68
2022/04/04 06:16:45;;;;;;;74.13;40.88;;;;;;;;;;5095508;28;20022;-75
2022/04/04 06:19:10;;;;;;;76.07;45.63;;;;;;;;;;5095332;28;20036;-72
2022/04/04 06:21:36;;;;;;;102.47;55.65;;;;;;;;;;5096869;28;20020;-71
2022/04/04 06:24:02;;;;;;;180.07;85.70;;;;;;;;;;5094158;28;21499;-73
2022/04/04 06:26:28;;;;;;;111.53;57.97;;;;;;;;;;5096506;28;20024;-74
2022/04/04 06:28:54;;;;;;;55.47;32.97;;;;;;;;;;5098358;28;20028;-73
2022/04/04 06:31:19;;;;;;;59.55;35.05;;;;;;;;;;5096329;28;20036;-70
2022/04/04 06:33:45;;;;;;;84.57;50.00;;;;;;;;;;5098684;28;20031;-76
2022/04/04 06:36:11;;;;;;;65.25;38.30;;;;;;;;;;5098627;28;20035;-72
2022/04/04 06:38:36;;;;;;;167.43;99.00;;;;;;;;;;5099018;28;20346;-76
2022/04/04 06:41:02;;;;;;;71.85;39.63;;;;;;;;;;5095034;28;20158;-70
2022/04/04 06:43:27;;;;;;;44.85;31.25;;;;;;;;;;5076647;28;20486;-69
2022/04/04 06:45:52;;;;;;;28.85;19.60;;;;;;;;;;5055021;28;20068;-70
2022/04/04 06:48:18;;;;;;;38.17;25.13;;;;;;;;;;5054742;28;20321;-70
2022/04/04 06:50:43;;;;;;;34.00;21.40;;;;;;;;;;5053595;28;20035;-69
2022/04/04 06:53:09;;;;;;;21.80;16.08;;;;;;;;;;5057352;28;20020;-69
2022/04/04 06:55:35;;;;;;;25.40;17.85;;;;;;;;;;5053301;28;20409;-72
2022/04/04 06:58:01;;;;;;;52.22;33.92;;;;;;;;;;5053197;28;20033;-70
2022/04/04 07:00:26;;;;;;;80.18;42.30;;;;;;;;;;5055101;28;20035;-72
2022/04/04 07:02:53;;;;;;;71.47;34.58;;;;;;;;;;5053497;28;20021;-72
2022/04/04 07:05:18;;;;;;;67.85;35.45;;;;;;;;;;5052264;28;20036;-71
2022/04/04 07:07:44;;;;;;;31.40;20.60;;;;;;;;;;5051906;28;20098;-69
2022/04/04 07:10:11;;;;;;;29.30;20.02;;;;;;;;;;5057781;28;20016;-75
2022/04/04 07:12:40;;;;;;;26.10;17.55;;;;;;;;;;5055468;28;20159;-76
2022/04/04 07:15:07;;;;;;;32.58;21.33;;;;;;;;;;5051300;28;20032;-75
2022/04/04 07:17:33;;;;;;;27.00;18.35;;;;;;;;;;5052444;28;20063;-76
2022/04/04 07:19:58;;;;;;;19.20;15.15;;;;;;;;;;5055043;28;20444;-71
2022/04/04 07:22:24;;;;;;;18.00;12.98;;;;;;;;;;5053505;28;20104;-71
2022/04/04 07:24:50;;;;;;;17.50;12.88;;;;;;;;;;5054730;28;20033;-76
2022/04/04 07:27:16;;;;;;;20.70;14.18;;;;;;;;;;5053434;28;20742;-73
2022/04/04 07:29:42;;;;;;;15.82;13.35;;;;;;;;;;5052769;28;20112;-78
2022/04/04 07:32:09;;;;;;;18.13;12.73;;;;;;;;;;5051111;28;20021;-70
2022/04/04 07:34:34;;;;;;;20.60;13.45;;;;;;;;;;5054439;28;20101;-70
2022/04/04 07:37:00;;;;;;;16.23;11.77;;;;;;;;;;5052265;28;20024;-70
2022/04/04 07:39:26;;;;;;;313.55;178.43;;;;;;;;;;5055978;28;20347;-70
2022/04/04 07:41:51;;;;;;;184.68;96.80;;;;;;;;;;5052451;28;20032;-76
2022/04/04 07:44:17;;;;;;;64.85;32.17;;;;;;;;;;5088901;28;20407;-71
2022/04/04 07:46:42;;;;;;;45.97;25.17;;;;;;;;;;5095396;28;20047;-72
2022/04/04 07:49:07;;;;;;;36.05;24.00;;;;;;;;;;5098978;28;20042;-69
2022/04/04 07:51:33;;;;;;;30.95;21.90;;;;;;;;;;5096489;28;20544;-77
2022/04/04 07:53:58;;;;;;;19.77;13.75;;;;;;;;;;5099147;28;20126;-70
2022/04/04 07:56:23;;;;;;;37.13;24.73;;;;;;;;;;5096639;28;20047;-73
2022/04/04 07:58:49;;;;;;;28.17;18.27;;;;;;;;;;5086600;27;20148;-78
2022/04/04 08:01:14;;;;;;;18.15;12.57;;;;;;;;;;5082392;28;20086;-73
2022/04/04 08:03:40;;;;;;;16.60;11.25;;;;;;;;;;5083561;28;20350;-70
2022/04/04 08:06:05;;;;;;;16.98;13.50;;;;;;;;;;5081801;27;20110;-77
2022/04/04 08:08:31;;;;;;;39.53;27.73;;;;;;;;;;5083650;28;20347;-72
2022/04/04 08:11:00;;;;;;;22.05;15.80;;;;;;;;;;5083436;28;20076;-72
2022/04/04 08:13:25;;;;;;;17.67;13.27;;;;;;;;;;5086719;28;20039;-75
2022/04/04 08:15:51;;;;;;;26.85;18.33;;;;;;;;;;5097492;28;20324;-73
2022/04/04 08:18:16;;;;;;;32.03;19.90;;;;;;;;;;5090757;28;20028;-72
2022/04/04 08:20:42;;;;;;;35.72;22.23;;;;;;;;;;5088776;28;20429;-75
2022/04/04 08:23:08;;;;;;;26.58;16.23;;;;;;;;;;5098443;28;20023;-70
2022/04/04 08:25:33;;;;;;;22.33;14.50;;;;;;;;;;5086066;28;20416;-69
2022/04/04 08:27:58;;;;;;;22.42;15.65;;;;;;;;;;5092008;28;20020;-71
2022/04/04 08:30:24;;;;;;;19.90;14.30;;;;;;;;;;5083981;28;20116;-69
2022/04/04 08:32:49;;;;;;;21.55;16.98;;;;;;;;;;5083719;28;20298;-72
2022/04/04 08:35:15;;;;;;;26.48;15.18;;;;;;;;;;5094507;28;20073;-70
2022/04/04 08:37:41;;;;;;;18.50;15.35;;;;;;;;;;5094317;28;20034;-70
2022/04/04 08:40:08;;;;;;;25.40;18.52;;;;;;;;;;5096003;28;20031;-73
2022/04/04 08:42:34;;;;;;;14.93;11.73;;;;;;;;;;5081676;28;20077;-72
2022/04/04 08:45:00;;;;;;;28.52;17.83;;;;;;;;;;5093311;28;20434;-72
2022/04/04 08:47:29;;;;;;;17.88;14.98;;;;;;;;;;5092762;28;21192;-72
2022/04/04 08:49:55;;;;;;;15.27;12.55;;;;;;;;;;5094986;28;20024;-72
2022/04/04 08:52:21;;;;;;;17.63;12.48;;;;;;;;;;5093859;28;20042;-77
2022/04/04 08:54:47;;;;;;;17.63;12.27;;;;;;;;;;5094919;28;20334;-76
2022/04/04 08:57:12;;;;;;;17.75;12.38;;;;;;;;;;5093431;28;20023;-72
2022/04/04 08:59:38;;;;;;;20.88;17.27;;;;;;;;;;5096264;28;20023;-72
2022/04/04 09:02:03;;;;;;;15.13;11.63;;;;;;;;;;5088584;28;20080;-70
2022/04/04 09:04:32;;;;;;;18.13;13.90;;;;;;;;;;5086544;28;20072;-72
2022/04/04 09:06:57;;;;;;;13.93;11.52;;;;;;;;;;5095931;28;20031;-71
2022/04/04 09:09:26;;;;;;;21.33;18.30;;;;;;;;;;5095836;28;20088;-72
2022/04/04 09:11:53;;;;;;;14.70;10.85;;;;;;;;;;5088628;28;20429;-71
2022/04/04 09:14:22;;;;;;;12.85;9.80;;;;;;;;;;5082952;28;20043;-74
2022/04/04 09:16:55;;;;;;;13.27;10.82;;;;;;;;;;5093360;28;20131;-74
2022/04/04 09:19:26;;;;;;;16.95;11.98;;;;;;;;;;5093287;28;20032;-71
2022/04/04 09:21:52;;;;;;;15.90;13.02;;;;;;;;;;5094801;28;20062;-72
2022/04/04 09:24:17;;;;;;;17.55;13.85;;;;;;;;;;5091918;28;20059;-73
2022/04/04 09:26:43;;;;;;;21.17;15.57;;;;;;;;;;5085034;28;20094;-74
2022/04/04 09:29:22;;;;;;;13.52;11.60;;;;;;;;;;5087578;28;20028;-74
2022/04/04 09:31:55;;;;;;;14.38;12.55;;;;;;;;;;5087665;28;20027;-76
2022/04/04 09:34:20;;;;;;;17.80;13.05;;;;;;;;;;5089978;28;20035;-72
2022/04/04 09:36:47;;;;;;;18.25;12.48;;;;;;;;;;5086876;28;20031;-72
2022/04/04 09:39:14;;;;;;;43.10;23.30;;;;;;;;;;5090891;28;20043;-75
2022/04/04 09:41:40;;;;;;;15.23;11.52;;;;;;;;;;5093367;28;20079;-72
2022/04/04 09:44:05;;;;;;;13.55;10.02;;;;;;;;;;5090517;28;20052;-71
2022/04/04 09:46:35;;;;;;;27.42;17.52;;;;;;;;;;5093435;28;20438;-76
2022/04/04 09:49:04;;;;;;;17.77;12.82;;;;;;;;;;5086296;28;22804;-72
2022/04/04 09:51:45;;;;;;;52.92;30.73;;;;;;;;;;5091458;28;20120;-73
2022/04/04 09:54:18;;;;;;;26.95;16.70;;;;;;;;;;5094963;28;20450;-76
2022/04/04 09:56:44;;;;;;;30.85;19.00;;;;;;;;;;5085777;28;20019;-73
2022/04/04 09:59:14;;;;;;;36.95;21.27;;;;;;;;;;5082489;28;20152;-74
2022/04/04 10:01:40;;;;;;;17.65;11.02;;;;;;;;;;5092688;28;20035;-74
2022/04/04 10:04:07;;;;;;;12.90;10.40;;;;;;;;;;5083551;28;20027;-74
2022/04/04 10:06:33;;;;;;;15.07;11.65;;;;;;;;;;5090409;28;20019;-75
2022/04/04 10:09:00;;;;;;;17.15;14.15;;;;;;;;;;5092596;28;20020;-74
2022/04/04 10:11:26;;;;;;;12.10;9.45;;;;;;;;;;5093258;28;20032;-74
2022/04/04 10:13:54;;;;;;;20.05;15.40;;;;;;;;;;5089959;28;20036;-76
2022/04/04 10:16:22;;;;;;;49.67;32.33;;;;;;;;;;5095238;28;20055;-73
2022/04/04 10:18:48;;;;;;;16.15;12.45;;;;;;;;;;5091299;28;20024;-72
2022/04/04 10:21:13;;;;;;;16.88;12.18;;;;;;;;;;5085555;28;20032;-74
2022/04/04 10:23:40;;;;;;;11.80;8.90;;;;;;;;;;5095916;28;20043;-73
2022/04/04 10:26:07;;;;;;;17.52;11.70;;;;;;;;;;5093120;28;20024;-71
2022/04/04 10:28:37;;;;;;;13.88;9.90;;;;;;;;;;5091511;28;20107;-72
2022/04/04 10:31:12;;;;;;;15.70;10.75;;;;;;;;;;5092604;28;20160;-73
2022/04/04 10:33:38;;;;;;;14.35;12.85;;;;;;;;;;5080121;28;20040;-73
2022/04/04 10:36:18;;;;;;;18.63;13.25;;;;;;;;;;5083903;28;20088;-72
2022/04/04 10:38:43;;;;;;;;;;;;;;;;;;5095983;28;20022;-73
2022/04/04 10:41:09;;;;;;;16.97;10.63;;;;;;;;;;5085660;28;19911;-73
2022/04/04 10:43:36;;;;;;;13.82;10.02;;;;;;;;;;5093060;28;20824;-73
2022/04/04 10:46:27;;;;;;;12.38;9.40;;;;;;;;;;5090627;28;20045;-78
2022/04/04 10:48:54;;;;;;;16.10;13.85;;;;;;;;;;5090980;28;20074;-73
2022/04/04 10:51:27;;;;;;;15.32;11.32;;;;;;;;;;5093524;28;20114;-73
2022/04/04 10:54:01;;;;;;;10.70;9.23;;;;;;;;;;5091871;28;20126;-74
2022/04/04 10:56:30;;;;;;;12.75;9.82;;;;;;;;;;5093699;28;20059;-76
2022/04/04 10:59:14;;;;;;;7.10;6.40;;;;;;;;;;5082581;28;20088;-75
2022/04/04 11:01:40;;;;;;;10.20;7.70;;;;;;;;;;5080772;28;20015;-73
2022/04/04 11:04:05;;;;;;;9.73;7.32;;;;;;;;;;5092617;28;20031;-75
2022/04/04 11:09:26;;;;;;;9.32;7.55;;;;;;;;;;5060515;28;20040;-77
2022/04/04 11:11:54;;;;;;;9.48;7.15;;;;;;;;;;5095019;28;20038;-76
2022/04/04 11:14:37;;;;;;;6.55;5.30;;;;;;;;;;5095687;28;20039;-75
2022/04/04 11:17:08;;;;;;;8.73;6.35;;;;;;;;;;5097986;28;20063;-76
2022/04/04 11:19:49;;;;;;;9.80;8.23;;;;;;;;;;5095444;28;20373;-78
2022/04/04 11:22:15;;;;;;;12.93;7.75;;;;;;;;;;5083679;28;20370;-76
2022/04/04 11:24:40;;;;;;;9.40;7.82;;;;;;;;;;5095267;28;20060;-77
2022/04/04 11:27:07;;;;;;;8.85;6.90;;;;;;;;;;5095885;28;20099;-77
2022/04/04 11:29:35;;;;;;;11.20;7.93;;;;;;;;;;5095739;28;20039;-76
2022/04/04 11:32:01;;;;;;;20.65;14.65;;;;;;;;;;5095332;28;20035;-78
2022/04/04 11:34:29;;;;;;;9.90;7.50;;;;;;;;;;5099219;28;20031;-78
2022/04/04 11:36:54;;;;;;;10.70;7.80;;;;;;;;;;5095306;28;20059;-76
2022/04/04 11:39:19;;;;;;;10.73;8.23;;;;;;;;;;5094749;28;20054;-77
2022/04/04 11:41:51;;;;;;;16.35;12.15;;;;;;;;;;5097395;28;22555;-77
2022/04/04 11:44:26;;;;;;;9.15;6.43;;;;;;;;;;5094352;28;20071;-77
2022/04/04 11:47:01;;;;;;;10.07;6.95;;;;;;;;;;5093889;28;20019;-79
2022/04/04 11:49:31;;;;;;;7.55;6.20;;;;;;;;;;5095504;28;20750;-77
2022/04/04 11:52:02;;;;;;;11.50;8.00;;;;;;;;;;5093455;28;20020;-78
2022/04/04 11:54:30;;;;;;;10.30;8.38;;;;;;;;;;5097544;28;20028;-78
2022/04/04 11:56:57;;;;;;;8.07;7.22;;;;;;;;;;5088143;28;20047;-78
2022/04/04 11:59:23;;;;;;;7.50;6.15;;;;;;;;;;5082307;28;20506;-79
2022/04/04 12:01:48;;;;;;;6.90;5.55;;;;;;;;;;5094055;28;20031;-78
2022/04/04 12:04:15;;;;;;;9.30;6.72;;;;;;;;;;5093884;28;20114;-79
2022/04/04 12:06:41;;;;;;;9.18;7.05;;;;;;;;;;5093857;28;20446;-76
2022/04/04 12:09:10;;;;;;;10.05;7.25;;;;;;;;;;5087814;28;20110;-79
2022/04/04 12:11:35;;;;;;;9.10;7.03;;;;;;;;;;5099136;28;20118;-78
2022/04/04 12:14:01;;;;;;;9.13;6.35;;;;;;;;;;5096597;28;20139;-79
2022/04/04 12:16:27;;;;;;;7.25;6.45;;;;;;;;;;5095715;28;20035;-79
2022/04/04 12:18:58;;;;;;;10.57;8.10;;;;;;;;;;5091936;28;20359;-80
2022/04/04 12:21:23;;;;;;;10.70;8.00;;;;;;;;;;5090297;28;20082;-78
2022/04/04 12:26:34;;;;;;;9.63;6.55;;;;;;;;;;5081665;28;20129;-74
2022/04/04 12:28:59;;;;;;;9.23;7.30;;;;;;;;;;5078242;28;20036;-79
2022/04/04 12:31:26;;;;;;;8.68;7.75;;;;;;;;;;5083992;28;20061;-77
2022/04/04 12:34:09;;;;;;;8.80;7.60;;;;;;;;;;5097028;28;20027;-72
2022/04/04 12:36:38;;;;;;;18.92;10.85;;;;;;;;;;5094700;28;20069;-76
2022/04/04 12:39:05;;;;;;;12.68;8.35;;;;;;;;;;5096375;28;20023;-74
2022/04/04 12:41:40;;;;;;;13.50;9.75;;;;;;;;;;5088549;28;20024;-76
2022/04/04 12:44:06;;;;;;;14.40;9.77;;;;;;;;;;5052839;28;20127;-75
2022/04/04 12:46:33;;;;;;;19.27;10.35;;;;;;;;;;5035804;28;20052;-77
2022/04/04 12:49:14;;;;;;;28.52;14.40;;;;;;;;;;5033291;28;20099;-77
2022/04/04 12:51:50;;;;;;;14.90;10.77;;;;;;;;;;5035035;28;24101;-77
2022/04/04 12:54:23;;;;;;;7.47;6.60;;;;;;;;;;5034990;28;20115;-79
2022/04/04 12:56:49;;;;;;;7.78;6.82;;;;;;;;;;5038129;28;20029;-75
2022/04/04 12:59:15;;;;;;;12.18;8.52;;;;;;;;;;5037411;28;20143;-72
2022/04/04 13:01:40;;;;;;;14.60;12.02;;;;;;;;;;5033676;28;20028;-71
2022/04/04 13:04:19;;;;;;;22.08;16.65;;;;;;;;;;5043212;28;20124;-73
2022/04/04 13:06:45;;;;;;;49.63;24.63;;;;;;;;;;5043162;28;20025;-78
2022/04/04 13:09:10;;;;;;;91.53;38.65;;;;;;;;;;5045043;28;20029;-76
2022/04/04 13:11:48;;;;;;;127.85;61.78;;;;;;;;;;5042062;28;20025;-72
2022/04/04 13:14:14;;;;;;;118.60;59.42;;;;;;;;;;5052255;28;20044;-71
2022/04/04 13:16:39;;;;;;;31.75;22.50;;;;;;;;;;5052849;28;20051;-72
2022/04/04 13:19:08;;;;;;;28.27;17.98;;;;;;;;;;5052528;28;20135;-73
2022/04/04 13:21:37;;;;;;;111.10;62.50;;;;;;;;;;5049714;28;20027;-74
2022/04/04 13:24:03;;;;;;;56.95;36.70;;;;;;;;;;5052302;28;20140;-74
2022/04/04 13:26:29;;;;;;;105.15;63.33;;;;;;;;;;5026768;28;20139;-78
2022/04/04 13:28:54;;;;;;;56.65;36.25;;;;;;;;;;5054503;28;20017;-75
2022/04/04 13:31:20;;;;;;;20.92;14.35;;;;;;;;;;5056055;28;20040;-75
2022/04/04 13:33:47;;;;;;;16.77;10.95;;;;;;;;;;5049437;28;20020;-76
2022/04/04 13:36:12;;;;;;;13.23;11.13;;;;;;;;;;5032503;28;20021;-76
2022/04/04 13:38:38;;;;;;;16.42;10.60;;;;;;;;;;5050739;28;20040;-75
2022/04/04 13:41:04;;;;;;;28.15;18.65;;;;;;;;;;5048853;28;21038;-75
2022/04/04 13:43:30;;;;;;;21.23;15.77;;;;;;;;;;5074802;28;20059;-74
2022/04/04 13:45:56;;;;;;;17.73;14.75;;;;;;;;;;5094471;28;20442;-74
2022/04/04 13:48:22;;;;;;;18.67;14.73;;;;;;;;;;5095860;28;20046;-74
2022/04/04 13:50:48;;;;;;;15.02;12.00;;;;;;;;;;5096481;28;20035;-76
2022/04/04 13:53:13;;;;;;;13.05;11.60;;;;;;;;;;5096856;28;20031;-76
2022/04/04 13:55:39;;;;;;;15.65;11.82;;;;;;;;;;5098085;28;20114;-74
2022/04/04 13:58:04;;;;;;;13.48;9.70;;;;;;;;;;5091867;28;20020;-73
2022/04/04 14:00:29;;;;;;;19.35;15.25;;;;;;;;;;5086335;28;20062;-72
2022/04/04 14:02:55;;;;;;;16.08;13.40;;;;;;;;;;5094975;28;20728;-72
2022/04/04 14:05:20;;;;;;;16.23;13.02;;;;;;;;;;5095270;28;20097;-74
2022/04/04 14:07:46;;;;;;;23.45;17.48;;;;;;;;;;5096257;28;20122;-73
2022/04/04 14:10:14;;;;;;;16.50;11.73;;;;;;;;;;5098271;28;20042;-77
2022/04/04 14:12:40;;;;;;;42.28;23.33;;;;;;;;;;5093207;28;20024;-72
2022/04/04 14:15:06;;;;;;;22.70;15.57;;;;;;;;;;5080718;28;20041;-71
2022/04/04 14:17:35;;;;;;;20.95;16.33;;;;;;;;;;5081503;28;20024;-76
2022/04/04 14:20:00;;;;;;;29.30;20.73;;;;;;;;;;5080624;28;20016;-74
2022/04/04 14:22:26;;;;;;;18.95;16.70;;;;;;;;;;5090503;28;20144;-76
2022/04/04 14:24:54;;;;;;;36.00;29.48;;;;;;;;;;5095916;28;20031;-76